Time;durP1;ratioP1;P1;durP2;ratioP2;P2;SDS_P1;SDS_P2;PMS_P1;PMS_P2;Temp;Humidity;BMP_temperature;BMP_pressure;BME280_temperature;BME280_humidity;BME280_pressure;Samples;Min_cycle;Max_cycle;Signal;HPM_P1;HPM_P2
2022/09/29 00:00:01;;;;;;;8.68;7.78;;;;;;;;;;5326486;28;20016;-65
2022/09/29 00:02:32;;;;;;;9.45;8.40;;;;;;;;;;5325639;28;20028;-65
2022/09/29 00:05:03;;;;;;;8.06;7.26;;;;;;;;;;5325728;27;20094;-65
2022/09/29 00:07:34;;;;;;;10.02;8.18;;;;;;;;;;5325532;28;20024;-65
2022/09/29 00:10:06;;;;;;;11.32;8.10;;;;;;;;;;5326461;28;20463;-65
2022/09/29 00:12:37;;;;;;;9.40;8.30;;;;;;;;;;5324936;27;20028;-65
2022/09/29 00:15:08;;;;;;;9.32;8.30;;;;;;;;;;5326306;28;20027;-65
2022/09/29 00:17:40;;;;;;;12.30;8.43;;;;;;;;;;5325436;28;20027;-65
2022/09/29 00:20:11;;;;;;;10.50;8.18;;;;;;;;;;5325423;28;20493;-65
2022/09/29 00:22:42;;;;;;;8.63;7.60;;;;;;;;;;5325399;28;20121;-66
2022/09/29 00:25:13;;;;;;;10.00;8.65;;;;;;;;;;5324613;28;20023;-65
2022/09/29 00:27:44;;;;;;;11.50;8.77;;;;;;;;;;5324701;28;20039;-65
2022/09/29 00:30:15;;;;;;;9.00;8.10;;;;;;;;;;5325712;28;20045;-66
2022/09/29 00:32:47;;;;;;;11.02;8.60;;;;;;;;;;5324297;28;20388;-65
2022/09/29 00:35:18;;;;;;;13.04;8.68;;;;;;;;;;5325756;28;20024;-65
2022/09/29 00:37:49;;;;;;;12.10;8.65;;;;;;;;;;5325078;28;20091;-65
2022/09/29 00:40:20;;;;;;;10.30;8.22;;;;;;;;;;5324954;28;20027;-65
2022/09/29 00:42:51;;;;;;;9.25;8.05;;;;;;;;;;5324952;28;20024;-65
2022/09/29 00:45:23;;;;;;;18.70;8.02;;;;;;;;;;5325657;28;20425;-66
2022/09/29 00:48:14;;;;;;;11.90;8.48;;;;;;;;;;5324325;28;20050;-64
2022/09/29 00:50:50;;;;;;;8.95;8.02;;;;;;;;;;5324858;28;20388;-64
2022/09/29 00:53:22;;;;;;;9.98;8.15;;;;;;;;;;5325547;28;20060;-64
2022/09/29 00:56:00;;;;;;;8.70;7.88;;;;;;;;;;5323906;28;20026;-64
2022/09/29 00:58:49;;;;;;;10.52;7.65;;;;;;;;;;5324651;28;20015;-65
2022/09/29 01:01:20;;;;;;;;;;;;;;;;;;5324995;28;20030;-64
2022/09/29 01:03:54;;;;;;;11.30;8.30;;;;;;;;;;5324414;28;19904;-64
2022/09/29 01:06:28;;;;;;;9.35;7.78;;;;;;;;;;5324450;28;20026;-65
2022/09/29 01:09:07;;;;;;;9.45;8.38;;;;;;;;;;5324277;28;20027;-64
2022/09/29 01:11:39;;;;;;;10.38;8.55;;;;;;;;;;5324568;28;20084;-65
2022/09/29 01:14:10;;;;;;;10.93;8.48;;;;;;;;;;5325000;28;20028;-65
2022/09/29 01:16:42;;;;;;;10.35;8.57;;;;;;;;;;5323525;28;20046;-65
2022/09/29 01:19:19;;;;;;;11.88;8.88;;;;;;;;;;5324845;28;20019;-64
2022/09/29 01:22:10;;;;;;;9.60;8.23;;;;;;;;;;5323541;28;20077;-65
2022/09/29 01:24:41;;;;;;;12.15;9.38;;;;;;;;;;5324185;28;20381;-65
2022/09/29 01:27:16;;;;;;;11.85;8.88;;;;;;;;;;5324754;28;20103;-64
2022/09/29 01:30:03;;;;;;;10.65;8.68;;;;;;;;;;5323296;28;20274;-65
2022/09/29 01:32:52;;;;;;;10.50;9.07;;;;;;;;;;5323766;28;20035;-65
2022/09/29 01:35:35;;;;;;;9.65;8.50;;;;;;;;;;5323836;28;20020;-65
2022/09/29 01:38:25;;;;;;;12.82;9.10;;;;;;;;;;5323572;28;20046;-65
2022/09/29 01:41:06;;;;;;;12.38;8.85;;;;;;;;;;5324589;28;20521;-65
2022/09/29 01:43:43;;;;;;;13.20;9.73;;;;;;;;;;5323166;28;20058;-65
2022/09/29 01:46:26;;;;;;;14.88;9.57;;;;;;;;;;5324264;28;20090;-65
2022/09/29 01:48:59;;;;;;;10.05;9.05;;;;;;;;;;5324287;28;20028;-65
2022/09/29 01:51:36;;;;;;;12.48;9.30;;;;;;;;;;5322771;28;20040;-65
2022/09/29 01:54:23;;;;;;;11.40;9.32;;;;;;;;;;5324254;28;20031;-65
2022/09/29 01:57:03;;;;;;;10.32;8.65;;;;;;;;;;5323757;28;20031;-65
2022/09/29 01:59:42;;;;;;;10.93;8.60;;;;;;;;;;5323806;28;20466;-65
2022/09/29 02:02:16;;;;;;;13.93;9.15;;;;;;;;;;5324283;28;20020;-65
2022/09/29 02:04:52;;;;;;;11.70;8.98;;;;;;;;;;5322679;27;20103;-65
2022/09/29 02:07:37;;;;;;;9.57;8.43;;;;;;;;;;5323563;27;20084;-65
2022/09/29 02:10:16;;;;;;;9.15;8.23;;;;;;;;;;5324085;28;20076;-65
2022/09/29 02:12:48;;;;;;;12.13;8.32;;;;;;;;;;5322622;28;20012;-65
2022/09/29 02:15:25;;;;;;;12.82;8.25;;;;;;;;;;5323931;28;20389;-66
2022/09/29 02:17:58;;;;;;;10.10;9.07;;;;;;;;;;5324137;28;20018;-65
2022/09/29 02:20:29;;;;;;;11.35;8.95;;;;;;;;;;5322625;28;20015;-65
2022/09/29 02:23:01;;;;;;;10.70;8.80;;;;;;;;;;5323938;28;20012;-65
2022/09/29 02:25:34;;;;;;;11.93;10.30;;;;;;;;;;5322411;28;20023;-65
2022/09/29 02:28:06;;;;;;;11.43;10.32;;;;;;;;;;5323710;28;20028;-65
2022/09/29 02:30:37;;;;;;;15.30;10.77;;;;;;;;;;5323338;28;20027;-65
2022/09/29 02:33:19;;;;;;;14.82;10.95;;;;;;;;;;5322965;28;20028;-65
2022/09/29 02:35:54;;;;;;;12.70;11.27;;;;;;;;;;5323159;28;20343;-65
2022/09/29 02:38:42;;;;;;;17.45;10.48;;;;;;;;;;5323040;28;20034;-65
2022/09/29 02:41:19;;;;;;;12.13;10.77;;;;;;;;;;5323144;28;20028;-65
2022/09/29 02:44:26;;;;;;;14.35;10.90;;;;;;;;;;5323153;28;20088;-65
2022/09/29 02:47:13;;;;;;;13.55;10.82;;;;;;;;;;5236677;28;20038;-65
2022/09/29 02:50:00;;;;;;;13.25;11.55;;;;;;;;;;5322441;28;20558;-64
2022/09/29 02:52:51;;;;;;;13.25;10.65;;;;;;;;;;5327374;28;20015;-65
2022/09/29 02:55:35;;;;;;;12.50;10.70;;;;;;;;;;5326417;28;20034;-64
2022/09/29 02:58:11;;;;;;;13.45;9.95;;;;;;;;;;5328002;28;20027;-64
2022/09/29 03:00:43;;;;;;;13.30;11.63;;;;;;;;;;5326493;28;20655;-64
2022/09/29 03:03:14;;;;;;;12.73;11.02;;;;;;;;;;5327708;28;20031;-65
2022/09/29 03:05:45;;;;;;;15.20;10.56;;;;;;;;;;5326801;28;20030;-65
2022/09/29 03:08:17;;;;;;;10.13;9.13;;;;;;;;;;5326696;28;20208;-64
2022/09/29 03:10:48;;;;;;;10.38;9.36;;;;;;;;;;5327156;28;20020;-65
2022/09/29 03:13:19;;;;;;;11.48;10.27;;;;;;;;;;5327561;28;20023;-65
2022/09/29 03:15:51;;;;;;;14.32;9.95;;;;;;;;;;5325974;28;20011;-65
2022/09/29 03:18:23;;;;;;;10.78;9.68;;;;;;;;;;5327585;28;20020;-65
2022/09/29 03:20:54;;;;;;;11.27;10.07;;;;;;;;;;5327237;28;20096;-65
2022/09/29 03:23:25;;;;;;;11.40;10.23;;;;;;;;;;5326025;28;20019;-65
2022/09/29 03:25:56;;;;;;;11.30;10.20;;;;;;;;;;5327183;28;20041;-66
2022/09/29 03:28:28;;;;;;;12.82;9.78;;;;;;;;;;5325662;28;20545;-65
2022/09/29 03:31:08;;;;;;;12.52;10.90;;;;;;;;;;5327425;28;20462;-66
2022/09/29 03:33:40;;;;;;;12.45;9.30;;;;;;;;;;5326778;28;20027;-65
2022/09/29 03:36:11;;;;;;;15.82;10.10;;;;;;;;;;5326425;28;20023;-65
2022/09/29 03:38:44;;;;;;;13.65;9.70;;;;;;;;;;5326395;28;20066;-66
2022/09/29 03:41:15;;;;;;;10.57;9.60;;;;;;;;;;5326994;28;20027;-65
2022/09/29 03:43:47;;;;;;;10.13;9.10;;;;;;;;;;5325804;28;20392;-66
2022/09/29 03:46:18;;;;;;;11.13;9.13;;;;;;;;;;5326977;28;20023;-66
2022/09/29 03:48:49;;;;;;;10.63;9.68;;;;;;;;;;5326227;28;20097;-66
2022/09/29 03:51:20;;;;;;;10.54;9.18;;;;;;;;;;5325663;28;20052;-66
2022/09/29 03:53:52;;;;;;;10.90;9.77;;;;;;;;;;5326289;28;20075;-66
2022/09/29 03:56:23;;;;;;;10.88;9.73;;;;;;;;;;5326418;28;20138;-66
2022/09/29 03:58:54;;;;;;;11.25;9.10;;;;;;;;;;5325364;28;20051;-66
2022/09/29 04:01:26;;;;;;;9.85;8.95;;;;;;;;;;5326065;27;20019;-64
2022/09/29 04:03:57;;;;;;;9.95;8.95;;;;;;;;;;5325578;28;20019;-66
2022/09/29 04:06:28;;;;;;;11.18;10.00;;;;;;;;;;5325706;28;20454;-66
2022/09/29 04:09:00;;;;;;;9.93;8.93;;;;;;;;;;5326438;28;20026;-66
2022/09/29 04:11:31;;;;;;;12.30;8.98;;;;;;;;;;5325085;28;20020;-66
2022/09/29 04:14:02;;;;;;;10.68;9.57;;;;;;;;;;5326259;28;20100;-65
2022/09/29 04:16:33;;;;;;;10.60;9.50;;;;;;;;;;5325540;27;20007;-65
2022/09/29 04:19:05;;;;;;;11.40;9.94;;;;;;;;;;5325551;28;20024;-65
2022/09/29 04:21:36;;;;;;;14.48;10.57;;;;;;;;;;5325776;28;20024;-65
2022/09/29 04:24:07;;;;;;;13.94;11.02;;;;;;;;;;5326301;28;20042;-65
2022/09/29 04:26:38;;;;;;;11.30;10.10;;;;;;;;;;5324561;28;20020;-65
2022/09/29 04:29:10;;;;;;;12.30;10.50;;;;;;;;;;5325876;28;20039;-65
2022/09/29 04:31:41;;;;;;;11.07;9.95;;;;;;;;;;5324745;28;20023;-65
2022/09/29 04:34:12;;;;;;;11.75;10.55;;;;;;;;;;5325797;28;20424;-65
2022/09/29 04:36:43;;;;;;;11.68;10.36;;;;;;;;;;5325130;28;20023;-65
2022/09/29 04:39:14;;;;;;;12.65;10.50;;;;;;;;;;5324985;28;20372;-65
2022/09/29 04:41:45;;;;;;;13.32;9.80;;;;;;;;;;5325216;28;20018;-65
2022/09/29 04:44:19;;;;;;;12.08;10.18;;;;;;;;;;5325708;28;20024;-64
2022/09/29 04:46:50;;;;;;;11.40;10.20;;;;;;;;;;5324064;28;20028;-65
2022/09/29 04:49:21;;;;;;;10.95;9.82;;;;;;;;;;5325549;28;20016;-65
2022/09/29 04:51:52;;;;;;;11.68;9.60;;;;;;;;;;5324551;28;20052;-65
2022/09/29 04:54:23;;;;;;;11.50;10.30;;;;;;;;;;5324204;28;20054;-65
2022/09/29 04:56:55;;;;;;;13.02;10.14;;;;;;;;;;5325198;28;20020;-64
2022/09/29 04:59:26;;;;;;;10.65;9.65;;;;;;;;;;5324697;28;20016;-65
2022/09/29 05:01:58;;;;;;;11.05;9.98;;;;;;;;;;5324442;28;20028;-65
2022/09/29 05:04:29;;;;;;;11.82;10.63;;;;;;;;;;5324374;27;20076;-65
2022/09/29 05:07:00;;;;;;;15.25;11.63;;;;;;;;;;5324323;28;20030;-65
2022/09/29 05:09:31;;;;;;;11.90;10.70;;;;;;;;;;5324402;28;20148;-65
2022/09/29 05:12:02;;;;;;;12.77;11.32;;;;;;;;;;5324385;28;20016;-65
2022/09/29 05:14:33;;;;;;;13.45;10.38;;;;;;;;;;5323613;28;20098;-65
2022/09/29 05:17:05;;;;;;;11.88;10.40;;;;;;;;;;5324899;28;20020;-65
2022/09/29 05:19:36;;;;;;;10.85;9.75;;;;;;;;;;5324482;28;20099;-66
2022/09/29 05:22:07;;;;;;;11.88;10.23;;;;;;;;;;5323956;28;20034;-65
2022/09/29 05:24:38;;;;;;;14.93;11.57;;;;;;;;;;5323638;28;20016;-65
2022/09/29 05:27:09;;;;;;;12.85;10.82;;;;;;;;;;5324200;28;20352;-64
2022/09/29 05:29:41;;;;;;;11.68;10.30;;;;;;;;;;5323142;28;20050;-65
2022/09/29 05:32:12;;;;;;;15.52;12.14;;;;;;;;;;5324599;28;20034;-65
2022/09/29 05:34:43;;;;;;;15.63;11.27;;;;;;;;;;5323857;28;20019;-65
2022/09/29 05:37:17;;;;;;;13.52;10.98;;;;;;;;;;5323308;28;20373;-66
2022/09/29 05:39:48;;;;;;;14.38;12.38;;;;;;;;;;5323407;28;20022;-65
2022/09/29 05:42:19;;;;;;;16.86;12.34;;;;;;;;;;5323653;28;20035;-64
2022/09/29 05:44:50;;;;;;;17.30;13.40;;;;;;;;;;5323532;28;20016;-65
2022/09/29 05:47:22;;;;;;;16.82;12.84;;;;;;;;;;5324017;28;20478;-65
2022/09/29 05:49:53;;;;;;;15.10;13.07;;;;;;;;;;5322653;28;20470;-65
2022/09/29 05:52:24;;;;;;;16.15;14.45;;;;;;;;;;5323214;28;20102;-65
2022/09/29 05:54:56;;;;;;;15.18;13.60;;;;;;;;;;5323956;28;20027;-65
2022/09/29 05:57:27;;;;;;;18.67;14.95;;;;;;;;;;5322822;28;20116;-66
2022/09/29 05:59:58;;;;;;;17.23;13.80;;;;;;;;;;5323829;28;20024;-65
2022/09/29 06:02:29;;;;;;;17.58;14.36;;;;;;;;;;5323040;28;20485;-64
2022/09/29 06:05:00;;;;;;;14.62;13.12;;;;;;;;;;5322947;28;20022;-64
2022/09/29 06:07:31;;;;;;;17.55;14.73;;;;;;;;;;5323183;28;20508;-65
2022/09/29 06:10:03;;;;;;;18.70;13.77;;;;;;;;;;5323894;28;20470;-65
2022/09/29 06:12:35;;;;;;;15.35;13.75;;;;;;;;;;5322623;28;20024;-65
2022/09/29 06:15:06;;;;;;;17.63;15.02;;;;;;;;;;5323754;28;20008;-65
2022/09/29 06:17:38;;;;;;;15.35;12.85;;;;;;;;;;5322380;28;20084;-65
2022/09/29 06:20:09;;;;;;;14.55;13.05;;;;;;;;;;5323302;28;20019;-65
2022/09/29 06:22:40;;;;;;;15.88;12.95;;;;;;;;;;5322958;28;20396;-65
2022/09/29 06:25:12;;;;;;;18.08;13.40;;;;;;;;;;5323294;28;20022;-65
2022/09/29 06:27:43;;;;;;;15.98;13.32;;;;;;;;;;5322800;28;20035;-65
2022/09/29 06:30:14;;;;;;;16.02;14.32;;;;;;;;;;5323451;28;20019;-65
2022/09/29 06:32:45;;;;;;;15.23;13.50;;;;;;;;;;5322298;28;20428;-65
2022/09/29 06:38:06;;;;;;;15.85;13.55;;;;;;;;;;5323758;28;20474;-65
2022/09/29 06:40:37;;;;;;;15.98;12.95;;;;;;;;;;5322084;28;20027;-65
2022/09/29 06:43:10;;;;;;;18.25;13.48;;;;;;;;;;5323359;28;20031;-66
2022/09/29 06:45:41;;;;;;;16.30;12.95;;;;;;;;;;5322324;28;20012;-67
2022/09/29 06:48:12;;;;;;;13.20;9.65;;;;;;;;;;5323320;28;20039;-66
2022/09/29 06:50:44;;;;;;;9.13;8.23;;;;;;;;;;5322127;28;20046;-66
2022/09/29 06:53:15;;;;;;;13.48;8.02;;;;;;;;;;5322805;28;20031;-66
2022/09/29 06:55:52;;;;;;;10.30;6.45;;;;;;;;;;5323057;28;20016;-67
2022/09/29 06:58:24;;;;;;;8.40;6.45;;;;;;;;;;5323244;28;20470;-67
2022/09/29 07:00:58;;;;;;;8.00;6.82;;;;;;;;;;5322490;28;20012;-65
2022/09/29 07:03:29;;;;;;;8.50;6.20;;;;;;;;;;5322764;28;20016;-65
2022/09/29 07:06:02;;;;;;;8.76;6.10;;;;;;;;;;5323387;28;20481;-65
2022/09/29 07:08:35;;;;;;;6.63;5.72;;;;;;;;;;5321960;28;20055;-65
2022/09/29 07:11:07;;;;;;;9.57;6.43;;;;;;;;;;5323443;28;20365;-65
2022/09/29 07:13:38;;;;;;;10.68;6.60;;;;;;;;;;5321807;28;20051;-65
2022/09/29 07:16:11;;;;;;;10.48;6.68;;;;;;;;;;5323633;28;20470;-65
2022/09/29 07:18:43;;;;;;;9.70;6.57;;;;;;;;;;5322793;28;20401;-65
2022/09/29 07:21:16;;;;;;;8.52;7.07;;;;;;;;;;5322508;28;20054;-66
2022/09/29 07:23:48;;;;;;;10.52;7.70;;;;;;;;;;5322450;28;20050;-66
2022/09/29 07:26:19;;;;;;;11.10;7.45;;;;;;;;;;5317991;28;20054;-66
2022/09/29 07:28:50;;;;;;;9.48;7.47;;;;;;;;;;5320796;28;20084;-65
2022/09/29 07:31:21;;;;;;;11.25;7.47;;;;;;;;;;5322583;28;20111;-66
2022/09/29 07:33:53;;;;;;;8.48;7.50;;;;;;;;;;5323446;28;20027;-66
2022/09/29 07:36:24;;;;;;;12.52;7.88;;;;;;;;;;5325903;28;20121;-67
2022/09/29 07:38:55;;;;;;;9.60;7.32;;;;;;;;;;5326169;28;20019;-68
2022/09/29 07:41:26;;;;;;;8.93;7.65;;;;;;;;;;5326458;28;20369;-66
2022/09/29 07:43:58;;;;;;;9.55;7.72;;;;;;;;;;5326068;28;20049;-66
2022/09/29 07:46:29;;;;;;;10.30;7.53;;;;;;;;;;5326186;28;20023;-66
2022/09/29 07:49:00;;;;;;;13.00;6.97;;;;;;;;;;5325935;28;20489;-65
2022/09/29 07:51:31;;;;;;;9.27;6.88;;;;;;;;;;5325979;28;20047;-66
2022/09/29 07:54:03;;;;;;;8.13;6.60;;;;;;;;;;5326740;28;20269;-66
2022/09/29 07:56:34;;;;;;;9.05;7.15;;;;;;;;;;5325189;28;20031;-65
2022/09/29 07:59:05;;;;;;;9.85;7.38;;;;;;;;;;5326569;27;20019;-65
2022/09/29 08:01:36;;;;;;;9.48;6.72;;;;;;;;;;5326161;28;20474;-65
2022/09/29 08:04:08;;;;;;;11.68;8.08;;;;;;;;;;5325982;28;20034;-66
2022/09/29 08:06:40;;;;;;;11.05;8.13;;;;;;;;;;5325891;28;20018;-66
2022/09/29 08:09:11;;;;;;;10.95;8.18;;;;;;;;;;5326445;28;20024;-66
2022/09/29 08:11:42;;;;;;;9.65;7.50;;;;;;;;;;5324785;28;20026;-67
2022/09/29 08:14:14;;;;;;;12.95;8.00;;;;;;;;;;5326432;28;20051;-66
2022/09/29 08:16:45;;;;;;;10.63;8.15;;;;;;;;;;5325589;28;20028;-66
2022/09/29 08:19:16;;;;;;;9.68;8.32;;;;;;;;;;5325919;28;20072;-66
2022/09/29 08:21:48;;;;;;;12.24;8.06;;;;;;;;;;5325490;28;20107;-66
2022/09/29 08:24:19;;;;;;;12.50;8.50;;;;;;;;;;5325194;28;20028;-66
2022/09/29 08:26:51;;;;;;;14.85;8.25;;;;;;;;;;5325406;28;20037;-66
2022/09/29 08:29:22;;;;;;;15.05;8.85;;;;;;;;;;5325748;28;20019;-66
2022/09/29 08:31:55;;;;;;;10.48;8.15;;;;;;;;;;5324360;28;20020;-66
2022/09/29 08:34:26;;;;;;;15.45;9.23;;;;;;;;;;5325191;28;20103;-66
2022/09/29 08:36:57;;;;;;;12.95;9.43;;;;;;;;;;5325743;28;20123;-66
2022/09/29 08:39:30;;;;;;;16.77;9.23;;;;;;;;;;5324441;28;20016;-65
2022/09/29 08:42:04;;;;;;;10.98;8.85;;;;;;;;;;5325872;28;20095;-66
2022/09/29 08:44:50;;;;;;;14.73;9.48;;;;;;;;;;5324808;28;20537;-66
2022/09/29 08:47:34;;;;;;;11.20;9.13;;;;;;;;;;5324065;28;20020;-66
2022/09/29 08:50:10;;;;;;;11.27;9.75;;;;;;;;;;5325500;28;20493;-66
2022/09/29 08:52:42;;;;;;;12.43;9.32;;;;;;;;;;5324329;28;20092;-64
2022/09/29 08:55:17;;;;;;;11.57;8.48;;;;;;;;;;5325382;28;20015;-64
2022/09/29 08:57:58;;;;;;;13.32;9.23;;;;;;;;;;5324599;28;20387;-65
2022/09/29 09:00:39;;;;;;;14.15;9.98;;;;;;;;;;5323913;28;20355;-65
2022/09/29 09:03:31;;;;;;;12.40;9.02;;;;;;;;;;5325179;28;20020;-65
2022/09/29 09:06:05;;;;;;;13.18;8.60;;;;;;;;;;5324207;28;20019;-65
2022/09/29 09:08:36;;;;;;;12.95;9.63;;;;;;;;;;5324293;28;20091;-66
2022/09/29 09:11:26;;;;;;;11.60;8.25;;;;;;;;;;5324786;28;20094;-65
2022/09/29 09:14:12;;;;;;;12.02;8.40;;;;;;;;;;5324121;28;20636;-65
2022/09/29 09:16:43;;;;;;;11.07;7.95;;;;;;;;;;5324258;28;20028;-65
2022/09/29 09:19:35;;;;;;;14.45;8.57;;;;;;;;;;5324752;28;20076;-65
2022/09/29 09:22:26;;;;;;;10.02;8.13;;;;;;;;;;5324215;28;20356;-66
2022/09/29 09:25:00;;;;;;;10.95;7.30;;;;;;;;;;5313430;28;20031;-66
2022/09/29 09:27:34;;;;;;;9.95;7.95;;;;;;;;;;5323310;28;20063;-65
2022/09/29 09:30:12;;;;;;;10.50;7.05;;;;;;;;;;5324742;28;20053;-66
2022/09/29 09:32:49;;;;;;;9.65;7.65;;;;;;;;;;5323969;28;20351;-66
2022/09/29 09:35:27;;;;;;;11.15;5.45;;;;;;;;;;5323833;28;20107;-66
2022/09/29 09:38:01;;;;;;;6.55;5.40;;;;;;;;;;5324671;28;20456;-66
2022/09/29 09:40:37;;;;;;;7.53;4.38;;;;;;;;;;5323714;28;20045;-66
2022/09/29 09:43:17;;;;;;;6.35;4.30;;;;;;;;;;5323708;28;20039;-66
2022/09/29 09:45:48;;;;;;;3.40;3.03;;;;;;;;;;5323677;28;20055;-66
2022/09/29 09:48:22;;;;;;;6.43;3.40;;;;;;;;;;5323537;28;20055;-66
2022/09/29 09:50:53;;;;;;;3.78;3.38;;;;;;;;;;5323349;28;20293;-67
2022/09/29 09:53:28;;;;;;;4.53;3.10;;;;;;;;;;5324067;28;20026;-67
2022/09/29 09:56:05;;;;;;;5.18;3.85;;;;;;;;;;5323193;28;20015;-69
2022/09/29 09:58:42;;;;;;;3.75;3.00;;;;;;;;;;5323618;28;20019;-66
2022/09/29 10:01:14;;;;;;;4.65;2.75;;;;;;;;;;5323990;28;20110;-65
2022/09/29 10:03:45;;;;;;;3.38;2.45;;;;;;;;;;5322789;28;20577;-65
2022/09/29 10:06:16;;;;;;;3.53;2.20;;;;;;;;;;5324024;28;20101;-65
2022/09/29 10:08:48;;;;;;;7.25;2.60;;;;;;;;;;5323133;28;20277;-65
2022/09/29 10:11:22;;;;;;;3.25;2.00;;;;;;;;;;5322936;28;20016;-66
2022/09/29 10:13:58;;;;;;;4.07;1.67;;;;;;;;;;5323435;28;20382;-65
2022/09/29 10:16:49;;;;;;;5.20;1.50;;;;;;;;;;5322483;28;20020;-66
2022/09/29 10:19:22;;;;;;;1.38;0.80;;;;;;;;;;5312778;28;20098;-66
2022/09/29 10:21:53;;;;;;;2.95;1.00;;;;;;;;;;5323449;28;20116;-66
2022/09/29 10:24:29;;;;;;;2.37;0.90;;;;;;;;;;5322855;28;20096;-66
2022/09/29 10:27:01;;;;;;;2.05;0.70;;;;;;;;;;5323698;28;20941;-66
2022/09/29 10:29:37;;;;;;;1.88;0.77;;;;;;;;;;5322973;28;20106;-66
2022/09/29 10:32:11;;;;;;;2.15;0.70;;;;;;;;;;5321807;28;20035;-66
2022/09/29 10:34:46;;;;;;;2.90;0.70;;;;;;;;;;5321156;28;20102;-66
2022/09/29 10:37:22;;;;;;;3.47;0.98;;;;;;;;;;5322084;28;20016;-65
2022/09/29 10:40:22;;;;;;;3.30;1.30;;;;;;;;;;5321181;28;20027;-66
2022/09/29 10:42:54;;;;;;;2.95;1.20;;;;;;;;;;5308841;28;20036;-66
2022/09/29 10:45:29;;;;;;;1.83;0.98;;;;;;;;;;5322263;28;20023;-66
2022/09/29 10:48:03;;;;;;;1.73;0.82;;;;;;;;;;5323365;28;20032;-66
2022/09/29 10:50:36;;;;;;;2.72;0.80;;;;;;;;;;5322861;28;20085;-66
2022/09/29 10:53:26;;;;;;;2.10;1.10;;;;;;;;;;5322524;28;20019;-66
2022/09/29 10:55:59;;;;;;;1.80;1.05;;;;;;;;;;5323277;28;20055;-67
2022/09/29 10:58:32;;;;;;;2.28;1.05;;;;;;;;;;5322543;28;20015;-67
2022/09/29 11:01:06;;;;;;;1.50;0.80;;;;;;;;;;5322988;28;20454;-67
2022/09/29 11:03:39;;;;;;;2.22;0.70;;;;;;;;;;5322350;28;20019;-67
2022/09/29 11:06:11;;;;;;;2.38;0.98;;;;;;;;;;5322364;28;20019;-66
2022/09/29 11:09:01;;;;;;;2.47;1.00;;;;;;;;;;5323197;28;20365;-67
2022/09/29 11:11:35;;;;;;;2.45;0.80;;;;;;;;;;5326854;28;20024;-67
2022/09/29 11:14:22;;;;;;;1.85;0.90;;;;;;;;;;5326554;28;20102;-66
2022/09/29 11:16:55;;;;;;;1.65;0.63;;;;;;;;;;5326664;28;20034;-66
2022/09/29 11:19:28;;;;;;;1.52;0.70;;;;;;;;;;5326623;28;20352;-66
2022/09/29 11:22:12;;;;;;;3.17;0.95;;;;;;;;;;5326335;28;20023;-67
2022/09/29 11:24:49;;;;;;;4.00;0.90;;;;;;;;;;5325482;28;20411;-66
2022/09/29 11:27:23;;;;;;;1.85;0.77;;;;;;;;;;5325108;28;20031;-66
2022/09/29 11:30:04;;;;;;;1.55;0.70;;;;;;;;;;5326506;28;20011;-66
2022/09/29 11:33:04;;;;;;;1.25;0.60;;;;;;;;;;5321396;28;20415;-65
2022/09/29 11:35:43;;;;;;;1.95;0.70;;;;;;;;;;5312406;28;20032;-66
2022/09/29 11:38:33;;;;;;;2.65;0.60;;;;;;;;;;5326257;28;20103;-65
2022/09/29 11:41:14;;;;;;;1.27;0.50;;;;;;;;;;5315048;28;20136;-65
2022/09/29 11:43:50;;;;;;;2.13;0.60;;;;;;;;;;5304911;28;20024;-65
2022/09/29 11:46:33;;;;;;;1.38;0.40;;;;;;;;;;5310252;28;20019;-65
2022/09/29 11:49:14;;;;;;;2.15;0.60;;;;;;;;;;5308221;28;20143;-65
2022/09/29 11:51:47;;;;;;;2.78;0.50;;;;;;;;;;5302668;28;20055;-66
2022/09/29 11:54:19;;;;;;;2.47;0.52;;;;;;;;;;5337169;27;20449;-66
2022/09/29 11:57:02;;;;;;;1.90;0.50;;;;;;;;;;5345101;27;20030;-66
2022/09/29 11:59:43;;;;;;;1.25;0.30;;;;;;;;;;5345877;27;20273;-66
2022/09/29 12:02:40;;;;;;;1.17;0.30;;;;;;;;;;5345593;27;20012;-66
2022/09/29 12:05:21;;;;;;;1.95;0.40;;;;;;;;;;5345718;27;20015;-66
2022/09/29 12:07:56;;;;;;;1.83;0.40;;;;;;;;;;5341387;27;20030;-68
2022/09/29 12:10:44;;;;;;;1.65;0.32;;;;;;;;;;5324816;28;20113;-67
2022/09/29 12:13:31;;;;;;;1.40;0.40;;;;;;;;;;5326130;28;20023;-67
2022/09/29 12:16:09;;;;;;;1.35;0.43;;;;;;;;;;5325503;28;20094;-67
2022/09/29 12:18:57;;;;;;;0.98;0.30;;;;;;;;;;5325349;28;20037;-67
2022/09/29 12:21:33;;;;;;;1.93;0.30;;;;;;;;;;5325307;28;20416;-67
2022/09/29 12:24:06;;;;;;;1.75;0.30;;;;;;;;;;5325108;28;20014;-68
2022/09/29 12:26:37;;;;;;;0.70;0.20;;;;;;;;;;5325356;28;20038;-67
2022/09/29 12:29:14;;;;;;;0.68;0.20;;;;;;;;;;5325767;28;20031;-67
2022/09/29 12:31:48;;;;;;;1.02;0.20;;;;;;;;;;5324451;28;20036;-67
2022/09/29 12:34:32;;;;;;;0.88;0.30;;;;;;;;;;5325530;28;20051;-67
2022/09/29 12:37:06;;;;;;;1.17;0.47;;;;;;;;;;5325013;28;20026;-67
2022/09/29 12:39:46;;;;;;;0.88;0.20;;;;;;;;;;5325263;27;20028;-68
2022/09/29 12:42:17;;;;;;;0.55;0.20;;;;;;;;;;5325641;28;20356;-66
2022/09/29 12:44:52;;;;;;;2.05;0.20;;;;;;;;;;5324197;28;20077;-66
2022/09/29 12:47:42;;;;;;;0.68;0.20;;;;;;;;;;5325341;28;20480;-66
2022/09/29 12:50:32;;;;;;;1.33;0.20;;;;;;;;;;5325366;28;20081;-66
2022/09/29 12:53:26;;;;;;;1.83;0.50;;;;;;;;;;5324583;28;20094;-67
2022/09/29 12:56:01;;;;;;;1.23;0.20;;;;;;;;;;5296052;28;20055;-66
2022/09/29 12:58:44;;;;;;;0.90;0.40;;;;;;;;;;5323787;28;20088;-66
2022/09/29 13:01:30;;;;;;;2.08;0.30;;;;;;;;;;5325064;28;20023;-67
2022/09/29 13:04:07;;;;;;;0.98;0.20;;;;;;;;;;5325232;28;20019;-67
2022/09/29 13:06:45;;;;;;;0.60;0.20;;;;;;;;;;5323719;28;20020;-65
2022/09/29 13:09:28;;;;;;;3.63;0.67;;;;;;;;;;5325266;28;20447;-66
2022/09/29 13:12:02;;;;;;;3.55;0.40;;;;;;;;;;5324602;28;20253;-65
2022/09/29 13:14:33;;;;;;;0.65;0.20;;;;;;;;;;5323448;28;20530;-65
2022/09/29 13:17:07;;;;;;;0.98;0.20;;;;;;;;;;5324984;28;20114;-66
2022/09/29 13:19:47;;;;;;;1.50;0.30;;;;;;;;;;5323616;28;20019;-66
2022/09/29 13:22:33;;;;;;;0.55;0.20;;;;;;;;;;5324623;28;20068;-67
2022/09/29 13:25:14;;;;;;;1.52;0.20;;;;;;;;;;5324907;28;20400;-66
2022/09/29 13:27:46;;;;;;;2.08;0.20;;;;;;;;;;5323210;28;20035;-66
2022/09/29 13:30:23;;;;;;;0.98;0.20;;;;;;;;;;5324640;28;20039;-66
2022/09/29 13:32:59;;;;;;;0.50;0.20;;;;;;;;;;5323753;28;20024;-66
2022/09/29 13:35:36;;;;;;;0.93;0.30;;;;;;;;;;5323227;28;20008;-66
2022/09/29 13:38:12;;;;;;;2.83;0.22;;;;;;;;;;5324666;28;20026;-66
2022/09/29 13:41:02;;;;;;;1.55;0.20;;;;;;;;;;5322727;28;20034;-65
2022/09/29 13:43:38;;;;;;;0.60;0.17;;;;;;;;;;5323597;28;20032;-67
2022/09/29 13:46:24;;;;;;;1.10;0.20;;;;;;;;;;5323669;28;20028;-66
2022/09/29 13:49:08;;;;;;;0.57;0.20;;;;;;;;;;5323143;28;20351;-67
2022/09/29 13:51:41;;;;;;;3.40;0.20;;;;;;;;;;5323276;28;20047;-66
2022/09/29 13:54:20;;;;;;;1.55;0.22;;;;;;;;;;5324541;28;20027;-66
2022/09/29 13:56:51;;;;;;;0.52;0.20;;;;;;;;;;5322989;28;20030;-66
2022/09/29 13:59:23;;;;;;;1.30;0.30;;;;;;;;;;5324020;28;20451;-66
2022/09/29 14:01:55;;;;;;;2.20;0.30;;;;;;;;;;5322729;28;20352;-66
2022/09/29 14:04:45;;;;;;;1.80;0.28;;;;;;;;;;5323266;28;20438;-65
2022/09/29 14:07:35;;;;;;;2.28;0.30;;;;;;;;;;5323948;28;20038;-66
2022/09/29 14:10:16;;;;;;;4.43;0.55;;;;;;;;;;5323046;28;20382;-66
2022/09/29 14:12:51;;;;;;;1.70;0.30;;;;;;;;;;5323521;28;20431;-66
2022/09/29 14:15:24;;;;;;;1.13;0.20;;;;;;;;;;5323772;28;20490;-66
2022/09/29 14:17:57;;;;;;;2.50;0.20;;;;;;;;;;5322716;28;20026;-66
2022/09/29 14:20:31;;;;;;;2.65;0.30;;;;;;;;;;5323036;28;20030;-67
2022/09/29 14:23:05;;;;;;;1.08;0.30;;;;;;;;;;5322585;28;20032;-66
2022/09/29 14:25:39;;;;;;;0.90;0.30;;;;;;;;;;5323189;28;20473;-66
2022/09/29 14:28:13;;;;;;;1.73;0.60;;;;;;;;;;5323616;28;20061;-67
2022/09/29 14:30:49;;;;;;;1.98;0.30;;;;;;;;;;5322189;28;20315;-68
2022/09/29 14:33:20;;;;;;;2.17;0.75;;;;;;;;;;5323298;28;20023;-67
2022/09/29 14:35:51;;;;;;;2.67;0.40;;;;;;;;;;5322856;28;20031;-67
2022/09/29 14:38:40;;;;;;;2.08;0.80;;;;;;;;;;5322685;28;20314;-67
2022/09/29 14:41:22;;;;;;;2.65;0.40;;;;;;;;;;5323600;28;20011;-67
2022/09/29 14:43:53;;;;;;;1.10;0.30;;;;;;;;;;5323094;28;20099;-67
2022/09/29 14:52:31;;;;;;;1.67;0.20;;;;;;;;;;5324524;28;20040;-68
2022/09/29 14:55:02;;;;;;;0.68;0.28;;;;;;;;;;5325130;28;20027;-67
2022/09/29 14:57:36;;;;;;;2.93;0.40;;;;;;;;;;5326988;28;20027;-67
2022/09/29 15:00:13;;;;;;;1.00;0.30;;;;;;;;;;5326313;28;20683;-67
2022/09/29 15:02:46;;;;;;;3.05;0.40;;;;;;;;;;5327186;28;20346;-67
2022/09/29 15:05:26;;;;;;;1.98;0.60;;;;;;;;;;5326648;28;20039;-67
2022/09/29 15:07:58;;;;;;;1.17;0.30;;;;;;;;;;5327372;27;20470;-67
2022/09/29 15:10:30;;;;;;;1.10;0.30;;;;;;;;;;5326639;28;20030;-67
2022/09/29 15:13:13;;;;;;;1.50;0.30;;;;;;;;;;5322605;28;20016;-67
2022/09/29 15:15:46;;;;;;;0.93;0.20;;;;;;;;;;5326318;27;20588;-67
2022/09/29 15:18:33;;;;;;;1.48;0.30;;;;;;;;;;5326230;28;20034;-67
2022/09/29 15:21:19;;;;;;;2.70;0.40;;;;;;;;;;5324208;28;20047;-67
2022/09/29 15:23:51;;;;;;;3.83;0.40;;;;;;;;;;5325835;28;20068;-67
2022/09/29 15:26:23;;;;;;;1.98;0.38;;;;;;;;;;5326075;28;20124;-66
2022/09/29 15:28:54;;;;;;;1.40;0.30;;;;;;;;;;5326771;28;20043;-66